Time;durP1;ratioP1;P1;durP2;ratioP2;P2;SDS_P1;SDS_P2;PMS_P1;PMS_P2;Temp;Humidity;BMP_temperature;BMP_pressure;BME280_temperature;BME280_humidity;BME280_pressure;Samples;Min_cycle;Max_cycle;Signal;HPM_P1;HPM_P2
2023/06/13 00:02:22;;;;;;;7.18;4.32;;;15.60;99.90;;;;;;6158053;23;20025;-90
2023/06/13 00:05:11;;;;;;;5.88;4.00;;;15.60;99.90;;;;;;6160543;23;20032;-90
2023/06/13 00:07:59;;;;;;;7.10;4.60;;;15.60;99.90;;;;;;6117971;23;20032;-92
2023/06/13 00:10:49;;;;;;;6.40;4.70;;;15.50;99.90;;;;;;6159094;23;20492;-92
2023/06/13 00:13:45;;;;;;;7.68;4.97;;;15.40;99.90;;;;;;6140394;23;20029;-92
2023/06/13 00:16:33;;;;;;;7.97;4.55;;;15.40;99.90;;;;;;6137539;23;20021;-92
2023/06/13 00:19:28;;;;;;;7.55;5.10;;;15.30;97.30;;;;;;6136690;23;20041;-91
2023/06/13 00:22:16;;;;;;;8.60;5.45;;;15.20;99.90;;;;;;6157618;23;20369;-88
2023/06/13 00:25:03;;;;;;;6.50;4.72;;;15.10;99.90;;;;;;6157378;23;20032;-86
2023/06/13 00:27:53;;;;;;;5.88;4.80;;;15.10;99.90;;;;;;6135632;23;20022;-89
2023/06/13 00:30:40;;;;;;;9.80;5.10;;;15.10;99.90;;;;;;6136626;23;20048;-90
2023/06/13 00:33:31;;;;;;;8.13;4.20;;;14.90;99.90;;;;;;6144080;23;20037;-92
2023/06/13 00:36:20;;;;;;;7.40;4.68;;;14.80;99.90;;;;;;6136646;23;20054;-89
2023/06/13 00:39:07;;;;;;;6.85;4.75;;;14.70;99.90;;;;;;6136266;23;20032;-91
2023/06/13 00:41:55;;;;;;;8.55;4.80;;;14.70;99.90;;;;;;6134634;23;20026;-90
2023/06/13 00:44:43;;;;;;;8.75;5.45;;;14.60;99.90;;;;;;6160221;23;20032;-89
2023/06/13 00:47:30;;;;;;;9.43;4.55;;;14.60;99.90;;;;;;6169513;23;20081;-89
2023/06/13 00:50:26;;;;;;;9.43;4.47;;;14.50;99.90;;;;;;6171667;23;20084;-91
2023/06/13 00:53:18;;;;;;;8.38;4.68;;;14.50;99.90;;;;;;6137520;23;20092;-89
2023/06/13 00:56:07;;;;;;;8.70;4.80;;;14.40;99.90;;;;;;6160964;23;20100;-88
2023/06/13 00:59:03;;;;;;;5.72;4.43;;;14.30;99.90;;;;;;6157843;23;20026;-90
2023/06/13 01:01:52;;;;;;;7.30;4.65;;;14.20;99.90;;;;;;6159437;23;20101;-89
2023/06/13 01:04:41;;;;;;;6.18;4.60;;;14.10;99.90;;;;;;6157982;23;20037;-95
2023/06/13 01:07:33;;;;;;;7.07;4.38;;;14.10;99.90;;;;;;6137407;23;20029;-91
2023/06/13 01:10:21;;;;;;;8.90;4.75;;;14.10;99.90;;;;;;6139234;23;20033;-89
2023/06/13 01:13:21;;;;;;;9.95;4.88;;;14.10;99.90;;;;;;6139879;23;20324;-92
2023/06/13 01:16:35;;;;;;;7.47;4.82;;;14.00;99.90;;;;;;6138930;23;20152;-92
2023/06/13 01:19:45;;;;;;;7.00;5.05;;;13.90;99.90;;;;;;6135866;23;20029;-89
2023/06/13 01:23:14;;;;;;;8.20;4.95;;;13.80;99.90;;;;;;6137935;23;20029;-92
2023/06/13 01:26:12;;;;;;;13.27;5.43;;;13.70;99.90;;;;;;6137862;23;20033;-89
2023/06/13 01:29:03;;;;;;;8.40;5.65;;;13.60;99.90;;;;;;6139668;23;20029;-92
2023/06/13 01:31:55;;;;;;;8.90;4.50;;;13.60;99.90;;;;;;6159747;23;20033;-91
2023/06/13 01:34:45;;;;;;;6.30;4.85;;;13.60;99.90;;;;;;6137762;23;20310;-91
2023/06/13 01:37:51;;;;;;;6.70;4.47;;;13.60;99.90;;;;;;6155729;23;20129;-90
2023/06/13 01:40:38;;;;;;;7.78;4.72;;;13.50;99.90;;;;;;6135522;23;20025;-92
2023/06/13 01:43:26;;;;;;;7.15;5.05;;;13.50;99.90;;;;;;6138206;23;20033;-89
2023/06/13 01:46:28;;;;;;;9.35;4.57;;;13.40;99.90;;;;;;6136087;23;20380;-90
2023/06/13 01:49:28;;;;;;;8.13;5.10;;;13.40;99.90;;;;;;6134394;23;20480;-92
2023/06/13 01:52:43;;;;;;;9.85;5.13;;;13.30;99.90;;;;;;6135341;23;20030;-92
2023/06/13 01:55:43;;;;;;;8.68;4.85;;;13.20;99.90;;;;;;6134418;23;20030;-94
2023/06/13 01:58:45;;;;;;;9.30;5.10;;;13.20;99.90;;;;;;6133906;23;20030;-91
2023/06/13 02:01:42;;;;;;;8.63;5.53;;;13.10;99.90;;;;;;6136954;23;20080;-91
2023/06/13 02:04:38;;;;;;;8.13;5.00;;;13.10;99.90;;;;;;6135025;23;20021;-91
2023/06/13 02:07:27;;;;;;;8.88;5.38;;;13.00;99.90;;;;;;6116365;23;20457;-93
2023/06/13 02:10:15;;;;;;;5.95;4.88;;;12.90;99.90;;;;;;6135985;23;20119;-93
2023/06/13 02:13:04;;;;;;;8.82;4.65;;;12.80;99.90;;;;;;6157348;23;20116;-92
2023/06/13 02:15:53;;;;;;;7.38;5.03;;;12.60;99.90;;;;;;6157405;23;20032;-93
2023/06/13 02:18:41;;;;;;;7.10;5.25;;;12.40;99.90;;;;;;6133283;23;20040;-89
2023/06/13 02:21:33;;;;;;;5.57;4.38;;;12.20;99.90;;;;;;6156155;23;20033;-90
2023/06/13 02:24:21;;;;;;;7.90;5.65;;;12.20;99.90;;;;;;6120850;23;20084;-91
2023/06/13 02:27:08;;;;;;;6.45;5.28;;;12.20;99.90;;;;;;6136322;23;20029;-92
2023/06/13 02:29:56;;;;;;;7.65;4.70;;;12.20;99.90;;;;;;6135971;23;20033;-90
2023/06/13 02:32:46;;;;;;;7.13;5.28;;;12.30;99.90;;;;;;6156755;23;20390;-90
2023/06/13 02:35:34;;;;;;;7.68;5.10;;;12.30;99.90;;;;;;6133364;23;20033;-93
2023/06/13 02:38:22;;;;;;;9.98;4.88;;;12.40;99.90;;;;;;6135425;23;20432;-93
2023/06/13 02:41:11;;;;;;;10.68;5.50;;;12.40;99.90;;;;;;6134450;23;20021;-92
2023/06/13 02:43:58;;;;;;;6.53;4.45;;;12.40;99.90;;;;;;6134455;23;20021;-93
2023/06/13 02:46:47;;;;;;;7.07;4.82;;;12.40;99.90;;;;;;6156562;23;20033;-90
2023/06/13 02:49:34;;;;;;;10.82;4.95;;;12.40;99.90;;;;;;6134405;23;20111;-92
2023/06/13 02:52:23;;;;;;;9.55;4.93;;;12.30;99.90;;;;;;6135198;23;20362;-92
2023/06/13 02:55:12;;;;;;;11.27;5.22;;;12.30;99.90;;;;;;6157611;23;20421;-93
2023/06/13 02:58:00;;;;;;;7.90;5.07;;;12.30;99.90;;;;;;6134515;23;20029;-94
2023/06/13 03:00:48;;;;;;;7.45;4.57;;;12.30;99.90;;;;;;6115313;23;20333;-92
2023/06/13 03:03:37;;;;;;;9.05;5.70;;;12.20;99.90;;;;;;6116930;23;20136;-93
2023/06/13 03:06:24;;;;;;;6.35;4.97;;;12.20;99.90;;;;;;6133070;23;20104;-91
2023/06/13 03:09:12;;;;;;;9.23;5.85;;;12.10;99.90;;;;;;6132913;23;20079;-94
2023/06/13 03:11:59;;;;;;;6.75;4.70;;;12.00;99.90;;;;;;6134515;23;20310;-92
2023/06/13 03:14:47;;;;;;;7.78;5.25;;;11.80;99.90;;;;;;6145469;23;20128;-91
2023/06/13 03:17:34;;;;;;;8.63;5.18;;;11.60;99.90;;;;;;6152285;23;20022;-91
2023/06/13 03:20:24;;;;;;;7.13;5.07;;;11.50;99.90;;;;;;6137240;23;20052;-91
2023/06/13 03:23:15;;;;;;;10.25;5.05;;;11.50;99.90;;;;;;6138446;23;20036;-93
2023/06/13 03:26:03;;;;;;;7.50;5.13;;;11.60;99.90;;;;;;6155253;23;20025;-93
2023/06/13 03:28:59;;;;;;;7.65;5.00;;;11.60;99.90;;;;;;6134759;23;20022;-94
2023/06/13 03:31:49;;;;;;;8.10;5.15;;;11.70;99.90;;;;;;6134943;23;20057;-91
2023/06/13 03:34:45;;;;;;;8.20;5.38;;;11.70;99.90;;;;;;6138667;23;20125;-94
2023/06/13 03:37:36;;;;;;;9.00;5.22;;;11.70;99.90;;;;;;6136363;23;20100;-93
2023/06/13 03:40:26;;;;;;;8.82;5.43;;;11.80;99.90;;;;;;6135709;23;20061;-93
2023/06/13 03:43:18;;;;;;;8.30;5.55;;;11.70;99.90;;;;;;6156240;23;20026;-93
2023/06/13 03:46:08;;;;;;;7.20;4.93;;;11.80;99.90;;;;;;6136657;23;20310;-91
2023/06/13 03:49:00;;;;;;;6.75;4.72;;;11.80;99.90;;;;;;6156415;23;20041;-94
2023/06/13 03:51:50;;;;;;;9.18;5.50;;;11.80;99.90;;;;;;6137930;23;20061;-92
2023/06/13 03:54:40;;;;;;;9.77;5.10;;;11.80;99.90;;;;;;6157747;23;20326;-93
2023/06/13 03:57:31;;;;;;;5.32;4.63;;;11.80;99.90;;;;;;6117601;23;20078;-94
2023/06/13 04:00:19;;;;;;;7.20;4.70;;;11.80;99.90;;;;;;6159014;23;20091;-93
2023/06/13 04:03:10;;;;;;;7.55;4.53;;;11.90;99.90;;;;;;6136527;23;20040;-92
2023/06/13 04:06:34;;;;;;;8.48;4.50;;;11.90;99.90;;;;;;5993703;23;20036;-94
2023/06/13 04:09:33;;;;;;;9.15;5.05;;;12.10;99.90;;;;;;5994352;23;20030;-94
2023/06/13 04:12:28;;;;;;;12.07;5.20;;;12.20;99.90;;;;;;5991974;23;20071;-94
2023/06/13 04:16:15;;;;;;;6.73;4.70;;;12.30;99.90;;;;;;5997190;23;20036;-93
2023/06/13 04:19:29;;;;;;;6.28;4.60;;;12.30;99.90;;;;;;5983600;23;20070;-92
2023/06/13 04:23:05;;;;;;;9.75;5.05;;;12.30;99.90;;;;;;6015952;23;20050;-94
2023/06/13 04:26:09;;;;;;;7.75;4.47;;;12.40;99.90;;;;;;5985870;23;20168;-93
2023/06/13 04:34:23;;;;;;;6.68;4.45;;;12.50;99.90;;;;;;6155577;23;20029;-83
2023/06/13 04:37:23;;;;;;;8.55;4.57;;;12.60;99.90;;;;;;6155023;23;20088;-86
2023/06/13 04:40:13;;;;;;;8.27;3.92;;;12.70;99.90;;;;;;6110605;23;20439;-88
2023/06/13 04:43:04;;;;;;;5.35;4.03;;;12.80;99.90;;;;;;6186702;23;20112;-86
2023/06/13 04:45:52;;;;;;;8.05;4.72;;;12.90;99.90;;;;;;6186577;23;20035;-87
2023/06/13 04:48:40;;;;;;;5.75;4.25;;;13.00;99.90;;;;;;6182149;23;20594;-88
2023/06/13 04:51:28;;;;;;;9.25;4.57;;;13.10;99.90;;;;;;6184511;23;20127;-86
2023/06/13 04:54:19;;;;;;;10.63;4.00;;;13.20;99.90;;;;;;6183850;23;20039;-86
2023/06/13 04:57:06;;;;;;;13.00;3.80;;;13.20;99.90;;;;;;6183674;23;20021;-87
2023/06/13 04:59:55;;;;;;;11.85;3.97;;;13.30;99.90;;;;;;6162898;23;20021;-87
2023/06/13 05:02:42;;;;;;;8.00;3.97;;;13.30;99.90;;;;;;6183866;23;20037;-88
2023/06/13 05:05:32;;;;;;;9.60;4.28;;;13.40;99.90;;;;;;6188864;23;20009;-87
2023/06/13 05:08:22;;;;;;;4.78;3.95;;;13.50;99.70;;;;;;6183956;23;20376;-87
2023/06/13 05:11:10;;;;;;;10.35;4.75;;;13.40;99.90;;;;;;6163107;23;20062;-88
2023/06/13 05:13:57;;;;;;;7.68;4.20;;;13.50;99.90;;;;;;6183231;23;20029;-88
2023/06/13 05:16:47;;;;;;;11.85;4.20;;;13.50;99.90;;;;;;6184305;23;20025;-86
2023/06/13 05:19:37;;;;;;;12.85;4.57;;;13.60;99.90;;;;;;6187427;23;20033;-86
2023/06/13 05:22:26;;;;;;;5.63;3.88;;;13.70;97.30;;;;;;6162981;23;20021;-85
2023/06/13 05:25:15;;;;;;;10.40;4.35;;;13.80;99.90;;;;;;6162522;23;20040;-86
2023/06/13 05:28:05;;;;;;;8.07;3.80;;;13.90;87.30;;;;;;6185537;23;20427;-85
2023/06/13 05:30:52;;;;;;;13.95;4.85;;;14.00;95.40;;;;;;6182173;23;20033;-86
2023/06/13 05:33:39;;;;;;;5.78;4.10;;;14.00;90.90;;;;;;6183641;23;20036;-87
2023/06/13 05:36:31;;;;;;;7.15;4.13;;;14.10;78.90;;;;;;6162160;23;20064;-86
2023/06/13 05:39:18;;;;;;;9.10;3.70;;;14.20;75.50;;;;;;6152611;23;20073;-86
2023/06/13 05:42:08;;;;;;;6.18;3.42;;;14.30;59.90;;;;;;6154279;23;20033;-91
2023/06/13 05:44:55;;;;;;;4.53;3.85;;;14.30;56.10;;;;;;6154303;23;20189;-91
2023/06/13 05:47:42;;;;;;;7.57;3.45;;;14.40;65.20;;;;;;6153107;23;20164;-92
2023/06/13 05:50:33;;;;;;;9.52;3.72;;;14.50;50.00;;;;;;6153224;23;20029;-92
2023/06/13 05:53:20;;;;;;;9.43;3.50;;;14.60;38.00;;;;;;6154424;23;20025;-90
2023/06/13 05:56:08;;;;;;;4.72;3.40;;;14.70;21.30;;;;;;6157004;23;20460;-92
2023/06/13 05:58:56;;;;;;;7.85;4.13;;;14.80;5.30;;;;;;6153422;23;20036;-91
2023/06/13 06:01:49;;;;;;;5.38;3.03;;;14.90;1.00;;;;;;6156303;23;20029;-92
2023/06/13 06:04:40;;;;;;;5.72;3.10;;;14.80;1.00;;;;;;6156991;23;20045;-93
2023/06/13 06:07:30;;;;;;;10.52;3.40;;;14.90;1.00;;;;;;6158641;23;20033;-89
2023/06/13 06:10:32;;;;;;;11.07;3.67;;;15.00;1.00;;;;;;6156168;23;20344;-92
2023/06/13 06:13:21;;;;;;;5.90;3.58;;;15.10;1.00;;;;;;6153925;23;20064;-90
2023/06/13 06:16:20;;;;;;;6.78;3.58;;;15.20;1.00;;;;;;6152856;23;20040;-90
2023/06/13 06:19:10;;;;;;;6.68;3.20;;;15.30;1.00;;;;;;6154804;23;20022;-89
2023/06/13 06:21:58;;;;;;;3.63;3.00;;;15.40;1.00;;;;;;6155167;23;20457;-92
2023/06/13 06:25:19;;;;;;;;;;;;;;;;;;;;;
2023/06/13 06:28:29;;;;;;;5.63;3.47;;;15.60;1.00;;;;;;6157977;23;20029;-91
2023/06/13 06:31:17;;;;;;;5.15;3.17;;;15.70;1.00;;;;;;6153728;23;20067;-88
2023/06/13 06:34:05;;;;;;;7.18;3.15;;;15.80;1.00;;;;;;6151298;23;20626;-88
2023/06/13 06:37:14;;;;;;;5.50;3.00;;;16.00;1.00;;;;;;6156575;23;20021;-94
2023/06/13 06:40:14;;;;;;;5.95;3.10;;;16.10;1.00;;;;;;6142568;23;20056;-89
2023/06/13 06:43:07;;;;;;;6.63;3.20;;;16.20;1.00;;;;;;6135528;23;20026;-89
2023/06/13 06:46:07;;;;;;;;;;;16.40;1.00;;;;;;6137880;23;20029;-90
2023/06/13 06:48:56;;;;;;;5.97;3.05;;;16.60;1.00;;;;;;6164204;23;19917;-90
2023/06/13 06:51:44;;;;;;;4.60;2.92;;;16.60;1.00;;;;;;6143889;23;20037;-90
2023/06/13 06:54:46;;;;;;;6.57;3.50;;;16.80;1.00;;;;;;6161499;23;20026;-89
2023/06/13 06:57:34;;;;;;;5.20;3.03;;;17.00;1.00;;;;;;6134206;23;20320;-86
2023/06/13 07:00:27;;;;;;;5.03;2.65;;;17.20;1.00;;;;;;6136180;23;20053;-87
2023/06/13 07:03:14;;;;;;;5.80;3.30;;;17.30;1.00;;;;;;6156310;23;20030;-87
2023/06/13 07:06:02;;;;;;;8.05;3.28;;;17.40;1.00;;;;;;6134955;23;20021;-91
2023/06/13 07:08:50;;;;;;;5.65;2.75;;;17.90;1.00;;;;;;6133660;23;20434;-87
2023/06/13 07:11:38;;;;;;;4.85;2.80;;;18.30;1.00;;;;;;6154767;23;20317;-87
2023/06/13 07:14:27;;;;;;;4.63;3.00;;;18.90;1.00;;;;;;6156025;23;20096;-90
2023/06/13 07:17:15;;;;;;;6.35;2.75;;;19.20;1.00;;;;;;6132153;23;20045;-89
2023/06/13 07:20:11;;;;;;;3.53;2.75;;;19.70;1.00;;;;;;6135173;23;20433;-90
2023/06/13 07:26:48;;;;;;;6.57;2.67;;;20.30;1.00;;;;;;6159442;23;20045;-92
2023/06/13 07:29:38;;;;;;;5.00;2.50;;;20.50;1.00;;;;;;6135677;23;20029;-85
2023/06/13 07:32:27;;;;;;;4.22;2.80;;;21.00;1.00;;;;;;6131824;23;20034;-90
2023/06/13 07:35:16;;;;;;;5.13;2.63;;;20.90;1.00;;;;;;6156915;23;20044;-90
2023/06/13 07:38:45;;;;;;;4.25;2.50;;;20.90;1.00;;;;;;6135189;23;20067;-92
2023/06/13 07:41:58;;;;;;;;;;;;;;;;;;;;;
2023/06/13 07:45:17;;;;;;;;;;;;;;;;;;;;;
2023/06/13 07:52:15;;;;;;;6.95;2.60;;;22.20;1.00;;;;;;6153868;23;20026;-90
2023/06/13 07:55:03;;;;;;;7.03;2.38;;;22.40;1.00;;;;;;6134472;23;20250;-91
2023/06/13 07:58:11;;;;;;;6.15;2.78;;;22.80;1.00;;;;;;6138708;23;20021;-87
2023/06/13 08:01:05;;;;;;;3.35;2.38;;;22.30;1.00;;;;;;6153504;23;20040;-87
2023/06/13 08:03:53;;;;;;;6.85;2.60;;;22.70;1.00;;;;;;6132349;23;20375;-88
2023/06/13 08:06:41;;;;;;;6.00;2.63;;;23.10;1.00;;;;;;6132753;23;20025;-86
2023/06/13 08:09:28;;;;;;;3.78;2.60;;;22.90;1.00;;;;;;6132375;23;20026;-86
2023/06/13 08:12:18;;;;;;;3.40;2.67;;;23.30;1.00;;;;;;6134653;23;20084;-85
2023/06/13 08:15:08;;;;;;;5.07;2.63;;;23.60;1.00;;;;;;6135264;23;20021;-86
2023/06/13 08:17:58;;;;;;;3.33;2.50;;;23.30;1.00;;;;;;6153692;23;20113;-88
2023/06/13 08:20:48;;;;;;;4.55;2.50;;;23.40;1.00;;;;;;6133489;23;20021;-86
2023/06/13 08:23:38;;;;;;;4.60;2.90;;;23.50;1.00;;;;;;6151910;23;20073;-85
2023/06/13 08:26:27;;;;;;;5.95;2.35;;;23.50;1.00;;;;;;6133755;23;20109;-88
2023/06/13 08:29:15;;;;;;;3.83;2.40;;;23.60;1.00;;;;;;6154998;23;20033;-83
2023/06/13 08:32:04;;;;;;;4.28;2.78;;;23.90;1.00;;;;;;6153892;23;20025;-88
2023/06/13 08:34:52;;;;;;;6.10;2.50;;;23.60;1.00;;;;;;6153083;23;20056;-85
2023/06/13 08:37:41;;;;;;;6.43;2.80;;;24.10;11.20;;;;;;6151189;23;20037;-88
2023/06/13 08:40:28;;;;;;;6.25;3.30;;;24.00;1.00;;;;;;6151516;23;20053;-88
2023/06/13 08:43:17;;;;;;;5.78;2.50;;;24.10;1.00;;;;;;6133070;23;20692;-88
2023/06/13 08:46:10;;;;;;;8.15;3.22;;;24.40;1.00;;;;;;6133427;23;20057;-85
2023/06/13 08:49:00;;;;;;;5.75;2.90;;;24.30;1.00;;;;;;6151603;23;20306;-90
2023/06/13 08:51:54;;;;;;;11.60;2.90;;;24.50;1.00;;;;;;6153815;23;20085;-87
2023/06/13 08:54:47;;;;;;;5.03;2.97;;;24.20;1.00;;;;;;6155145;23;20397;-88
2023/06/13 08:57:53;;;;;;;7.15;2.92;;;24.00;1.00;;;;;;6137681;23;20037;-87
2023/06/13 09:00:45;;;;;;;4.47;2.78;;;24.10;1.00;;;;;;6135489;23;20025;-85
2023/06/13 09:03:37;;;;;;;3.50;2.75;;;24.20;1.00;;;;;;6153018;23;20673;-84
2023/06/13 09:06:28;;;;;;;7.18;2.80;;;24.10;1.00;;;;;;6153898;23;20397;-89
2023/06/13 09:09:19;;;;;;;7.50;3.15;;;24.10;1.00;;;;;;6154619;23;20520;-86
2023/06/13 09:12:08;;;;;;;4.97;2.60;;;24.60;1.00;;;;;;6151420;23;20083;-86
2023/06/13 09:14:59;;;;;;;7.53;2.40;;;25.20;1.00;;;;;;6155692;23;20624;-85
2023/06/13 09:17:53;;;;;;;4.87;2.67;;;25.60;1.00;;;;;;6134841;23;20030;-86
2023/06/13 09:20:50;;;;;;;6.30;2.63;;;25.30;1.00;;;;;;6139027;23;20245;-87
2023/06/13 09:23:39;;;;;;;4.60;2.63;;;25.60;13.40;;;;;;6160046;23;20032;-88
2023/06/13 09:26:35;;;;;;;5.70;2.53;;;25.20;15.80;;;;;;6138240;23;20033;-88
2023/06/13 09:29:36;;;;;;;6.85;2.70;;;25.40;24.50;;;;;;6140311;23;20056;-88
2023/06/13 09:32:26;;;;;;;3.97;2.60;;;25.40;38.10;;;;;;6156121;23;20033;-89
2023/06/13 09:35:20;;;;;;;6.05;2.53;;;25.20;28.70;;;;;;6154028;23;20087;-84
2023/06/13 09:38:26;;;;;;;7.63;2.55;;;25.50;26.40;;;;;;6157213;23;20025;-88
2023/06/13 09:41:14;;;;;;;7.63;2.78;;;26.00;50.50;;;;;;6157937;23;20340;-90
2023/06/13 09:44:05;;;;;;;10.25;2.72;;;26.80;29.70;;;;;;6139658;23;20021;-90
2023/06/13 09:46:54;;;;;;;11.93;3.08;;;26.80;53.90;;;;;;6139245;23;20022;-89
2023/06/13 09:49:45;;;;;;;8.20;2.63;;;26.80;31.70;;;;;;6132962;23;20044;-90
2023/06/13 09:52:44;;;;;;;8.80;2.40;;;26.60;23.60;;;;;;6135159;23;20036;-91
2023/06/13 09:55:35;;;;;;;6.03;2.60;;;27.00;36.70;;;;;;6156738;23;20029;-89
2023/06/13 09:58:25;;;;;;;6.63;2.65;;;27.40;80.40;;;;;;6154725;23;20037;-91
2023/06/13 10:01:20;;;;;;;4.60;2.42;;;27.40;67.70;;;;;;6136823;23;20040;-89
2023/06/13 10:04:09;;;;;;;6.35;2.90;;;27.80;98.80;;;;;;6134489;23;20025;-88
2023/06/13 10:06:58;;;;;;;4.13;2.88;;;27.70;99.90;;;;;;6155564;23;20029;-89
2023/06/13 10:09:48;;;;;;;9.43;2.80;;;27.70;96.40;;;;;;6160911;23;20096;-88
2023/06/13 10:12:46;;;;;;;11.05;2.90;;;27.20;94.30;;;;;;6134297;23;20423;-89
2023/06/13 10:15:51;;;;;;;9.05;2.85;;;27.70;29.10;;;;;;6152628;23;20040;-87
2023/06/13 10:18:42;;;;;;;8.07;2.97;;;27.40;43.10;;;;;;6153931;23;20021;-90
2023/06/13 10:21:37;;;;;;;6.82;2.28;;;28.00;16.10;;;;;;6156125;23;20026;-91
2023/06/13 10:24:39;;;;;;;6.88;3.78;;;28.70;97.50;;;;;;6138616;23;20022;-88
2023/06/13 10:27:27;;;;;;;5.43;2.67;;;27.90;51.90;;;;;;6154723;23;20028;-86
2023/06/13 10:34:34;;;;;;;3.33;2.67;;;28.50;4.80;;;;;;6156441;23;20029;-89
2023/06/13 10:37:39;;;;;;;7.60;2.72;;;29.20;28.80;;;;;;6155222;23;20468;-88
2023/06/13 10:41:17;;;;;;;6.60;3.65;;;29.50;31.40;;;;;;6134220;23;20106;-87
2023/06/13 10:44:37;;;;;;;6.97;2.65;;;30.10;99.90;;;;;;6068603;23;20041;-90
2023/06/13 10:47:40;;;;;;;9.88;2.40;;;28.80;99.90;;;;;;6133614;23;20475;-88
2023/06/13 10:50:51;;;;;;;7.25;2.65;;;28.80;99.90;;;;;;6153367;23;20434;-92
2023/06/13 10:54:33;;;;;;;;;;;;;;;;;;;;;
2023/06/13 10:57:56;;;;;;;5.07;2.40;;;29.00;99.90;;;;;;6155266;23;20120;-86
2023/06/13 11:00:44;;;;;;;4.53;2.45;;;29.10;99.90;;;;;;6162744;23;20036;-91
2023/06/13 11:03:32;;;;;;;7.57;2.75;;;29.70;99.90;;;;;;6141316;23;20057;-88
2023/06/13 11:06:21;;;;;;;5.35;2.50;;;29.50;99.90;;;;;;6137480;23;20053;-89
2023/06/13 11:09:22;;;;;;;5.80;2.88;;;29.00;99.90;;;;;;6156288;23;20056;-90
2023/06/13 11:12:14;;;;;;;7.22;2.70;;;28.80;99.90;;;;;;6136391;23;20035;-89
2023/06/13 11:15:04;;;;;;;4.13;2.30;;;29.20;99.90;;;;;;6156085;23;20433;-90
2023/06/13 11:18:17;;;;;;;10.10;2.90;;;29.80;99.90;;;;;;6157800;23;20596;-89
2023/06/13 11:21:09;;;;;;;5.03;2.95;;;30.40;99.90;;;;;;6122069;23;20048;-87
2023/06/13 11:24:02;;;;;;;4.18;2.58;;;29.80;99.90;;;;;;6163091;23;20026;-89
2023/06/13 11:26:57;;;;;;;5.57;2.55;;;29.50;99.90;;;;;;6140156;23;20021;-89
2023/06/13 11:29:45;;;;;;;;;;;29.80;99.90;;;;;;6137845;23;20033;-88
2023/06/13 11:32:34;;;;;;;5.78;2.40;;;29.60;99.90;;;;;;6157284;23;19924;-86
2023/06/13 11:35:28;;;;;;;6.65;3.08;;;29.80;99.90;;;;;;6162151;23;20332;-86
2023/06/13 11:38:37;;;;;;;6.90;2.65;;;29.50;99.90;;;;;;6161275;23;20021;-92
2023/06/13 11:41:42;;;;;;;5.10;2.67;;;29.10;99.90;;;;;;6162298;23;20030;-91
2023/06/13 11:44:30;;;;;;;6.78;2.40;;;29.70;99.90;;;;;;6135669;23;20018;-88
2023/06/13 11:47:17;;;;;;;4.47;2.30;;;30.20;99.90;;;;;;6156070;23;20088;-86
2023/06/13 11:50:22;;;;;;;7.40;2.60;;;30.70;99.90;;;;;;6156319;23;20029;-89
2023/06/13 11:53:13;;;;;;;3.90;2.60;;;30.40;99.90;;;;;;6134018;23;20132;-87
2023/06/13 11:56:04;;;;;;;5.72;2.60;;;30.60;99.90;;;;;;6135002;23;20433;-87
2023/06/13 11:58:55;;;;;;;9.57;3.05;;;30.90;99.90;;;;;;6133368;23;20452;-88
2023/06/13 12:01:52;;;;;;;10.40;2.63;;;30.50;99.90;;;;;;6152663;23;20045;-89
2023/06/13 12:04:43;;;;;;;5.22;2.45;;;30.60;99.90;;;;;;6154493;23;20033;-88
2023/06/13 12:07:40;;;;;;;6.28;2.45;;;30.40;99.90;;;;;;6155608;23;20052;-90
2023/06/13 12:10:31;;;;;;;5.28;2.58;;;30.70;99.90;;;;;;6132802;23;20037;-89
2023/06/13 12:13:22;;;;;;;6.10;2.55;;;30.70;99.90;;;;;;6131786;23;20021;-92
2023/06/13 12:16:09;;;;;;;6.03;2.47;;;31.40;99.90;;;;;;6132860;23;20100;-88
2023/06/13 12:22:08;;;;;;;5.05;2.72;;;31.10;99.90;;;;;;6153735;23;20325;-87
2023/06/13 12:25:08;;;;;;;6.50;2.55;;;31.40;99.90;;;;;;6132268;23;20040;-90
2023/06/13 12:28:01;;;;;;;5.97;3.10;;;31.70;99.90;;;;;;6153401;23;20030;-89
2023/06/13 12:30:49;;;;;;;5.30;2.75;;;30.90;99.90;;;;;;6151953;23;20025;-87
2023/06/13 12:34:16;;;;;;;6.07;3.00;;;31.20;99.90;;;;;;6154153;23;20389;-90
2023/06/13 12:37:37;;;;;;;6.10;2.80;;;30.80;99.90;;;;;;6135578;23;20340;-89
2023/06/13 12:40:31;;;;;;;6.82;3.20;;;31.10;99.90;;;;;;6134074;23;20325;-87
2023/06/13 12:47:45;;;;;;;5.40;3.08;;;32.00;99.90;;;;;;6137148;23;20500;-88
2023/06/13 12:50:37;;;;;;;3.67;2.80;;;31.50;99.90;;;;;;6135212;23;20076;-83
2023/06/13 12:53:25;;;;;;;6.10;2.65;;;31.10;99.90;;;;;;6153509;23;20040;-86
2023/06/13 12:56:18;;;;;;;5.07;2.92;;;30.90;99.90;;;;;;6154016;23;20029;-89
2023/06/13 12:59:07;;;;;;;11.73;2.75;;;31.00;99.90;;;;;;6134765;23;20032;-82
2023/06/13 13:01:55;;;;;;;3.78;2.70;;;31.10;99.90;;;;;;6156365;23;20031;-90
2023/06/13 13:04:44;;;;;;;4.97;2.83;;;31.10;99.90;;;;;;6134114;23;20025;-87
2023/06/13 13:07:31;;;;;;;12.35;2.88;;;30.90;99.90;;;;;;6132174;23;20048;-86
2023/06/13 13:10:23;;;;;;;4.65;3.40;;;31.60;99.90;;;;;;6132702;23;20512;-89
2023/06/13 13:13:11;;;;;;;4.82;3.00;;;32.30;99.90;;;;;;6133842;23;20112;-87
2023/06/13 13:16:03;;;;;;;4.68;3.03;;;32.60;99.90;;;;;;6155319;23;20025;-85
2023/06/13 13:18:54;;;;;;;3.70;2.92;;;32.60;99.90;;;;;;6134484;23;20025;-87
2023/06/13 13:21:58;;;;;;;7.07;3.13;;;32.40;99.90;;;;;;6138462;23;20119;-88
2023/06/13 13:24:47;;;;;;;5.27;3.13;;;32.00;99.90;;;;;;6153278;23;20113;-85
2023/06/13 13:27:38;;;;;;;;;;;31.50;99.90;;;;;;6137464;23;20264;-85
2023/06/13 13:30:26;;;;;;;6.00;2.78;;;31.90;99.90;;;;;;6157524;23;19947;-88
2023/06/13 13:33:22;;;;;;;6.88;3.40;;;32.20;99.90;;;;;;6137716;23;20026;-83
2023/06/13 13:36:31;;;;;;;3.90;2.65;;;31.90;99.90;;;;;;6134934;23;20044;-86
2023/06/13 13:39:21;;;;;;;6.68;3.20;;;32.00;99.90;;;;;;6155588;23;20029;-88
2023/06/13 13:42:12;;;;;;;8.52;3.38;;;31.80;99.90;;;;;;6158253;23;20048;-85
2023/06/13 13:45:37;;;;;;;9.07;3.25;;;31.70;99.90;;;;;;6161761;23;20033;-88
2023/06/13 13:48:52;;;;;;;6.32;2.70;;;31.30;99.90;;;;;;6143098;23;20021;-86
2023/06/13 13:51:51;;;;;;;5.25;3.08;;;31.70;99.90;;;;;;6162768;23;20077;-90
2023/06/13 13:54:47;;;;;;;8.02;3.17;;;31.30;99.90;;;;;;6162161;23;20025;-86
2023/06/13 13:57:47;;;;;;;7.10;3.50;;;31.40;99.90;;;;;;6136568;23;20103;-87
2023/06/13 14:04:23;;;;;;;8.55;3.50;;;32.80;99.90;;;;;;6156197;23;20025;-90
2023/06/13 14:07:49;;;;;;;;;;;;;;;;;;;;;
2023/06/13 14:11:13;;;;;;;7.20;3.38;;;31.70;99.90;;;;;;6164872;23;20021;-88
2023/06/13 14:14:08;;;;;;;4.47;3.15;;;31.50;99.90;;;;;;6146867;23;20035;-85
2023/06/13 14:17:19;;;;;;;4.97;3.13;;;31.40;99.90;;;;;;6142992;23;20073;-91
2023/06/13 14:20:24;;;;;;;5.70;3.20;;;31.50;99.90;;;;;;6134695;23;20028;-90
2023/06/13 14:23:40;;;;;;;9.07;3.92;;;31.20;99.90;;;;;;6134668;23;20025;-88
2023/06/13 14:26:46;;;;;;;8.88;3.45;;;31.20;99.90;;;;;;6134738;23;20032;-87
2023/06/13 14:29:35;;;;;;;6.05;3.33;;;30.70;99.90;;;;;;6153177;23;20116;-85
2023/06/13 14:32:26;;;;;;;6.60;3.15;;;31.10;99.90;;;;;;6155981;23;20400;-84
2023/06/13 14:35:17;;;;;;;7.38;3.10;;;32.30;99.90;;;;;;6152616;23;20040;-83
2023/06/13 14:38:05;;;;;;;8.90;3.10;;;32.10;99.90;;;;;;6147634;23;20033;-87
2023/06/13 14:40:55;;;;;;;3.60;3.30;;;32.20;99.90;;;;;;6149216;23;20079;-89
2023/06/13 14:43:44;;;;;;;4.90;3.15;;;32.40;99.90;;;;;;6147826;23;20080;-84
2023/06/13 14:46:32;;;;;;;4.18;3.10;;;32.30;99.90;;;;;;6159762;23;20013;-83
2023/06/13 14:49:19;;;;;;;5.20;3.55;;;32.20;99.90;;;;;;6181574;23;20010;-86
2023/06/13 14:52:09;;;;;;;4.57;3.20;;;32.00;99.90;;;;;;6157337;23;20045;-84
2023/06/13 14:54:56;;;;;;;8.00;3.50;;;32.00;99.90;;;;;;6177072;23;20009;-86
2023/06/13 14:57:48;;;;;;;10.52;4.28;;;31.80;99.90;;;;;;6170424;23;20025;-85
2023/06/13 15:00:38;;;;;;;4.57;3.25;;;31.50;99.90;;;;;;6142978;23;20026;-90
2023/06/13 15:03:26;;;;;;;5.30;3.60;;;30.70;99.90;;;;;;6137804;23;20022;-86
2023/06/13 15:06:13;;;;;;;5.57;3.50;;;30.80;99.90;;;;;;6138037;23;20109;-83
2023/06/13 15:09:00;;;;;;;7.63;3.13;;;31.30;99.90;;;;;;6130862;23;20033;-86
2023/06/13 15:11:54;;;;;;;10.32;3.70;;;31.60;99.90;;;;;;6126862;23;20390;-85
2023/06/13 15:14:41;;;;;;;5.95;3.65;;;31.00;99.90;;;;;;6125417;23;20034;-84
2023/06/13 15:17:33;;;;;;;4.03;3.20;;;31.70;99.90;;;;;;6126661;23;20029;-87
2023/06/13 15:20:23;;;;;;;8.02;4.05;;;30.50;99.90;;;;;;6125666;23;20605;-83
2023/06/13 15:23:13;;;;;;;6.45;3.50;;;29.90;99.90;;;;;;6127474;23;20021;-87
2023/06/13 15:26:00;;;;;;;4.35;3.63;;;29.10;99.90;;;;;;6124238;23;20030;-89
2023/06/13 15:28:50;;;;;;;5.80;3.50;;;29.40;99.90;;;;;;6126144;23;20406;-86
2023/06/13 15:31:42;;;;;;;8.20;3.05;;;28.70;99.90;;;;;;6125848;23;20052;-84
2023/06/13 15:34:31;;;;;;;7.05;3.40;;;28.70;99.90;;;;;;6122953;23;20445;-86
2023/06/13 15:37:22;;;;;;;5.88;3.55;;;29.20;99.90;;;;;;6145669;23;20717;-89
2023/06/13 15:40:10;;;;;;;4.65;3.20;;;30.10;99.90;;;;;;6124005;23;20026;-87
2023/06/13 15:42:58;;;;;;;4.70;3.33;;;30.00;99.90;;;;;;6123930;23;20029;-84
2023/06/13 15:45:45;;;;;;;5.47;3.90;;;30.30;99.90;;;;;;6123931;23;20061;-85